createdAt,value
2023-03-24T00:00:29.758Z,14.91
2023-03-24T00:03:17.970Z,14.85
2023-03-24T00:05:45.667Z,14.78
2023-03-24T00:08:12.815Z,14.79
2023-03-24T00:10:40.175Z,14.78
2023-03-24T00:13:08.384Z,14.74
2023-03-24T00:15:36.409Z,14.76
2023-03-24T00:18:04.559Z,14.78
2023-03-24T00:20:33.325Z,14.81
2023-03-24T00:23:00.480Z,14.84
2023-03-24T00:25:36.600Z,14.85
2023-03-24T00:28:06.006Z,14.82
2023-03-24T00:30:35.215Z,14.79
2023-03-24T00:33:04.787Z,14.77
2023-03-24T00:35:32.302Z,14.66
2023-03-24T00:37:59.509Z,14.75
2023-03-24T00:40:28.086Z,14.73
2023-03-24T00:42:59.322Z,14.75
2023-03-24T00:45:26.578Z,14.73
2023-03-24T00:47:58.329Z,14.72
2023-03-24T00:50:28.843Z,14.72
2023-03-24T00:52:56.475Z,14.81
2023-03-24T00:55:24.337Z,14.94
2023-03-24T00:57:51.844Z,14.89
2023-03-24T01:00:25.569Z,14.88
2023-03-24T01:02:56.774Z,14.85
2023-03-24T01:05:28.413Z,14.83
2023-03-24T01:08:03.861Z,14.79
2023-03-24T01:10:34.574Z,14.77
2023-03-24T01:13:02.392Z,14.80
2023-03-24T01:15:34.115Z,14.75
2023-03-24T01:18:04.090Z,14.82
2023-03-24T01:20:35.859Z,14.97
2023-03-24T01:23:05.961Z,14.93
2023-03-24T01:25:37.480Z,14.94
2023-03-24T01:28:05.881Z,14.93
2023-03-24T01:30:33.222Z,15.04
2023-03-24T01:33:00.763Z,15.03
2023-03-24T01:35:29.508Z,15.10
2023-03-24T01:37:57.463Z,14.98
2023-03-24T01:40:32.948Z,15.04
2023-03-24T01:43:00.920Z,15.10
2023-03-24T01:45:40.868Z,15.22
2023-03-24T01:48:19.486Z,15.19
2023-03-24T01:50:53.153Z,15.13
2023-03-24T01:53:21.461Z,15.18
2023-03-24T01:55:49.448Z,15.26
2023-03-24T01:58:17.423Z,15.21
2023-03-24T02:00:45.411Z,15.09
2023-03-24T02:03:24.049Z,15.17
2023-03-24T02:05:54.084Z,15.23
2023-03-24T02:08:36.777Z,15.44
2023-03-24T02:11:04.393Z,15.30
2023-03-24T02:13:32.736Z,15.22
2023-03-24T02:16:31.291Z,15.22
2023-03-24T02:19:12.709Z,15.27
2023-03-24T02:21:42.924Z,15.39
2023-03-24T02:24:41.234Z,15.32
2023-03-24T02:27:39.795Z,15.23
2023-03-24T02:30:30.357Z,15.15
2023-03-24T02:33:21.123Z,15.15
2023-03-24T02:36:24.655Z,15.04
2023-03-24T02:39:07.108Z,14.95
2023-03-24T02:42:07.663Z,14.93
2023-03-24T02:44:56.942Z,14.91
2023-03-24T02:47:31.184Z,14.86
2023-03-24T02:50:18.009Z,14.86
2023-03-24T02:53:23.262Z,14.81
2023-03-24T02:55:57.434Z,14.79
2023-03-24T02:58:52.322Z,14.75
2023-03-24T03:01:31.894Z,14.71
2023-03-24T03:04:10.322Z,14.71
2023-03-24T03:06:42.935Z,14.66
2023-03-24T03:09:12.980Z,14.60
2023-03-24T03:11:47.190Z,14.55
2023-03-24T03:14:31.237Z,14.51
2023-03-24T03:17:08.135Z,14.46
2023-03-24T03:19:40.492Z,14.54
2023-03-24T03:22:14.281Z,14.53
2023-03-24T03:24:44.197Z,14.52
2023-03-24T03:27:32.671Z,14.53
2023-03-24T03:30:37.807Z,14.52
2023-03-24T03:33:10.275Z,14.43
2023-03-24T03:35:48.566Z,14.36
2023-03-24T03:38:22.914Z,14.38
2023-03-24T03:40:55.926Z,14.40
2023-03-24T03:43:23.839Z,14.39
2023-03-24T03:45:51.232Z,14.45
2023-03-24T03:48:19.257Z,14.46
2023-03-24T03:50:47.050Z,14.49
2023-03-24T03:53:18.531Z,14.49
2023-03-24T03:55:45.900Z,14.45
2023-03-24T03:58:13.393Z,14.41
2023-03-24T04:00:40.677Z,14.39
2023-03-24T04:03:46.576Z,14.40
2023-03-24T04:06:28.200Z,14.38
2023-03-24T04:09:18.761Z,14.35
2023-03-24T04:11:57.914Z,14.32
2023-03-24T04:14:53.806Z,14.29
2023-03-24T04:17:46.218Z,14.32
2023-03-24T04:20:18.886Z,14.27
2023-03-24T04:23:05.398Z,14.22
2023-03-24T04:25:57.013Z,14.23
2023-03-24T04:28:32.089Z,14.20
2023-03-24T04:31:07.612Z,14.28
2023-03-24T04:33:56.251Z,14.36
2023-03-24T04:36:43.366Z,14.46
2023-03-24T04:39:25.664Z,14.53
2023-03-24T04:41:53.450Z,14.58
2023-03-24T04:44:22.019Z,14.39
2023-03-24T04:46:51.056Z,14.40
2023-03-24T04:49:19.478Z,14.32
2023-03-24T04:51:47.588Z,14.24
2023-03-24T04:54:14.583Z,14.20
2023-03-24T04:56:48.057Z,14.27
2023-03-24T04:59:15.968Z,14.20
2023-03-24T05:01:50.240Z,14.22
2023-03-24T05:04:22.299Z,14.21
2023-03-24T05:06:52.640Z,14.31
2023-03-24T05:09:22.229Z,14.26
2023-03-24T05:11:49.672Z,14.22
2023-03-24T05:14:18.490Z,14.22
2023-03-24T05:16:46.131Z,14.17
2023-03-24T05:19:13.411Z,14.20
2023-03-24T05:21:41.446Z,14.17
2023-03-24T05:24:08.717Z,14.15
2023-03-24T05:26:35.996Z,14.17
2023-03-24T05:29:03.637Z,14.24
2023-03-24T05:31:31.045Z,14.28
2023-03-24T05:33:58.138Z,14.30
2023-03-24T05:36:25.902Z,14.33
2023-03-24T05:38:53.468Z,14.37
2023-03-24T05:41:20.720Z,14.36
2023-03-24T05:43:48.235Z,14.41
2023-03-24T05:46:15.618Z,14.43
2023-03-24T05:48:42.702Z,14.45
2023-03-24T05:51:10.149Z,14.51
2023-03-24T05:53:37.288Z,14.66
2023-03-24T05:56:06.059Z,14.72
2023-03-24T05:58:35.448Z,14.83
2023-03-24T06:01:08.051Z,14.86
2023-03-24T06:03:39.004Z,14.93
2023-03-24T06:06:08.396Z,15.06
2023-03-24T06:08:36.386Z,15.11
2023-03-24T06:11:04.225Z,15.09
2023-03-24T06:13:32.788Z,15.15
2023-03-24T06:16:03.075Z,15.23
2023-03-24T06:18:32.144Z,15.28
2023-03-24T06:21:00.106Z,15.46
2023-03-24T06:23:29.233Z,15.59
2023-03-24T06:26:04.611Z,15.81
2023-03-24T06:28:34.709Z,16.02
2023-03-24T06:31:05.136Z,16.11
2023-03-24T06:33:34.580Z,16.17
2023-03-24T06:36:02.126Z,16.37
2023-03-24T06:38:29.629Z,16.60
2023-03-24T06:41:04.062Z,16.58
2023-03-24T06:43:32.034Z,16.64
2023-03-24T06:45:59.787Z,16.68
2023-03-24T06:48:28.571Z,16.77
2023-03-24T06:50:56.186Z,16.68
2023-03-24T06:53:23.287Z,16.85
2023-03-24T06:55:51.351Z,16.92
2023-03-24T06:58:19.105Z,16.99
2023-03-24T07:00:49.045Z,17.03
2023-03-24T07:03:16.676Z,17.21
2023-03-24T07:05:45.778Z,17.44
2023-03-24T07:10:44.634Z,17.57
2023-03-24T07:13:11.822Z,17.55
2023-03-24T07:15:39.200Z,17.71
2023-03-24T07:18:13.759Z,17.93
2023-03-24T07:20:41.531Z,18.14
2023-03-24T07:23:08.770Z,18.12
2023-03-24T07:25:35.945Z,18.20
2023-03-24T07:28:03.409Z,18.43
2023-03-24T07:30:39.958Z,18.79
2023-03-24T07:33:10.980Z,19.06
2023-03-24T07:35:39.751Z,19.40
2023-03-24T07:38:06.769Z,19.75
2023-03-24T07:40:36.790Z,19.85
2023-03-24T07:43:07.767Z,19.81
2023-03-24T07:45:35.354Z,19.84
2023-03-24T07:48:02.625Z,19.70
2023-03-24T07:50:30.994Z,19.62
2023-03-24T07:53:00.142Z,19.77
2023-03-24T07:55:27.907Z,20.05
2023-03-24T07:57:55.066Z,20.13
2023-03-24T08:00:25.164Z,20.39
2023-03-24T08:02:53.795Z,20.50
2023-03-24T08:05:22.847Z,20.37
2023-03-24T08:07:56.067Z,20.49
2023-03-24T08:10:27.159Z,20.40
2023-03-24T08:12:55.375Z,20.52
2023-03-24T08:15:23.765Z,20.27
2023-03-24T08:17:51.889Z,20.37
2023-03-24T08:20:21.488Z,21.30
2023-03-24T08:22:50.219Z,22.06
2023-03-24T08:25:19.509Z,22.49
2023-03-24T08:27:47.407Z,22.84
2023-03-24T08:30:17.974Z,22.77
2023-03-24T08:32:46.999Z,22.84
2023-03-24T08:35:15.816Z,22.76
2023-03-24T08:37:45.885Z,22.23
2023-03-24T08:40:20.557Z,21.77
2023-03-24T08:42:52.628Z,21.42
2023-03-24T08:45:21.994Z,21.24
2023-03-24T08:47:50.691Z,21.22
2023-03-24T08:50:24.306Z,21.80
2023-03-24T08:52:51.879Z,22.00
2023-03-24T08:55:20.460Z,22.51
2023-03-24T08:57:48.220Z,23.05
2023-03-24T09:00:16.707Z,23.21
2023-03-24T09:02:45.247Z,23.18
2023-03-24T09:05:24.529Z,22.82
2023-03-24T09:07:57.293Z,22.73
2023-03-24T09:10:24.866Z,22.93
2023-03-24T09:12:52.053Z,22.26
2023-03-24T09:15:19.410Z,22.24
2023-03-24T09:17:46.694Z,22.23
2023-03-24T09:20:16.130Z,22.54
2023-03-24T09:22:45.842Z,23.16
2023-03-24T09:25:16.831Z,22.87
2023-03-24T09:27:43.947Z,23.35
2023-03-24T09:30:15.050Z,23.81
2023-03-24T09:32:42.447Z,23.45
2023-03-24T09:35:11.280Z,24.14
2023-03-24T09:37:39.171Z,24.18
2023-03-24T09:40:08.139Z,24.10
2023-03-24T09:42:40.935Z,23.47
2023-03-24T09:45:17.929Z,23.79
2023-03-24T09:47:56.906Z,23.55
2023-03-24T09:50:27.881Z,23.53
2023-03-24T09:53:22.285Z,24.48
2023-03-24T09:55:50.563Z,25.34
2023-03-24T09:58:18.411Z,25.26
2023-03-24T10:00:46.426Z,25.42
2023-03-24T10:03:21.816Z,24.97
2023-03-24T10:06:07.510Z,24.38
2023-03-24T10:08:42.738Z,24.00
2023-03-24T10:11:19.703Z,23.88
2023-03-24T10:14:17.352Z,24.19
2023-03-24T10:16:57.678Z,23.83
2023-03-24T10:19:37.259Z,23.25
2023-03-24T10:22:18.870Z,23.29
2023-03-24T10:25:09.932Z,23.37
2023-03-24T10:27:56.100Z,22.89
2023-03-24T10:30:37.392Z,22.68
2023-03-24T10:33:04.837Z,22.60
2023-03-24T10:35:38.447Z,22.72
2023-03-24T10:38:20.463Z,22.63
2023-03-24T10:40:49.046Z,22.63
2023-03-24T10:43:19.430Z,22.55
2023-03-24T10:45:52.793Z,22.76
2023-03-24T10:48:46.802Z,22.57
2023-03-24T10:51:19.762Z,22.13
2023-03-24T10:53:48.709Z,21.89
2023-03-24T10:56:37.179Z,22.24
2023-03-24T10:59:20.619Z,21.95
2023-03-24T11:01:48.427Z,21.89
2023-03-24T11:04:19.935Z,21.65
2023-03-24T11:07:14.701Z,21.82
2023-03-24T11:09:44.397Z,21.80
2023-03-24T11:12:44.872Z,21.85
2023-03-24T11:15:22.422Z,21.88
2023-03-24T11:17:57.634Z,22.02
2023-03-24T11:20:38.502Z,22.24
2023-03-24T11:23:29.474Z,22.06
2023-03-24T11:26:18.834Z,22.01
2023-03-24T11:28:52.954Z,22.26
2023-03-24T11:31:38.349Z,22.14
2023-03-24T11:34:34.605Z,22.34
2023-03-24T11:37:09.494Z,22.64
2023-03-24T11:39:37.175Z,22.47
2023-03-24T11:42:12.176Z,22.46
2023-03-24T11:44:39.891Z,22.37
2023-03-24T11:47:30.514Z,22.40
2023-03-24T11:50:11.414Z,22.54
2023-03-24T11:53:06.341Z,22.06
2023-03-24T11:56:01.621Z,22.26
2023-03-24T11:58:46.712Z,22.19
2023-03-24T12:01:27.014Z,22.66
2023-03-24T12:04:22.780Z,22.46
2023-03-24T12:07:07.500Z,22.57
2023-03-24T12:09:57.600Z,22.70
2023-03-24T12:12:40.092Z,23.10
2023-03-24T12:15:27.417Z,23.06
2023-03-24T12:17:58.387Z,23.11
2023-03-24T12:20:47.695Z,22.76
2023-03-24T12:23:34.896Z,22.59
2023-03-24T12:26:22.220Z,22.20
2023-03-24T12:28:58.746Z,22.32
2023-03-24T12:31:58.413Z,22.31
2023-03-24T12:34:50.236Z,22.32
2023-03-24T12:37:56.495Z,22.55
2023-03-24T12:40:26.705Z,22.47
2023-03-24T12:43:06.393Z,22.20
2023-03-24T12:45:49.825Z,22.34
2023-03-24T12:48:30.220Z,22.45
2023-03-24T12:51:07.163Z,22.47
2023-03-24T12:53:58.925Z,22.18
2023-03-24T12:56:38.060Z,22.24
2023-03-24T12:59:10.669Z,22.37
2023-03-24T13:01:46.186Z,22.27
2023-03-24T13:04:34.871Z,22.55
2023-03-24T13:07:14.980Z,22.64
2023-03-24T13:09:59.600Z,22.81
2023-03-24T13:12:32.527Z,23.27
2023-03-24T13:15:32.524Z,23.12
2023-03-24T13:18:09.236Z,23.14
2023-03-24T13:20:46.690Z,23.48
2023-03-24T13:23:32.180Z,23.61
2023-03-24T13:26:24.397Z,23.44
2023-03-24T13:29:12.610Z,23.02
2023-03-24T13:31:47.606Z,23.00
2023-03-24T13:34:36.610Z,22.83
2023-03-24T13:37:13.204Z,22.89
2023-03-24T13:39:44.032Z,23.25
2023-03-24T13:42:33.585Z,23.25
2023-03-24T13:45:02.493Z,23.26
2023-03-24T13:48:06.707Z,23.22
2023-03-24T13:50:37.408Z,23.43
2023-03-24T13:53:14.223Z,23.24
2023-03-24T13:55:49.924Z,23.20
2023-03-24T13:58:28.472Z,22.70
2023-03-24T14:01:11.374Z,22.44
2023-03-24T14:03:44.177Z,22.32
2023-03-24T14:06:17.822Z,22.39
2023-03-24T14:08:52.216Z,22.37
2023-03-24T14:11:32.444Z,22.08
2023-03-24T14:14:26.904Z,21.77
2023-03-24T14:17:06.467Z,21.45
2023-03-24T14:19:41.930Z,21.02
2023-03-24T14:22:27.470Z,21.02
2023-03-24T14:25:02.423Z,20.77
2023-03-24T14:27:36.007Z,20.64
2023-03-24T14:30:26.357Z,20.57
2023-03-24T14:32:57.979Z,20.45
2023-03-24T14:35:46.072Z,20.55
2023-03-24T14:38:17.789Z,20.94
2023-03-24T14:40:48.759Z,21.30
2023-03-24T14:43:29.433Z,21.48
2023-03-24T14:46:28.212Z,21.46
2023-03-24T14:49:14.070Z,21.25
2023-03-24T14:52:02.207Z,21.21
2023-03-24T14:54:42.306Z,21.26
2023-03-24T14:57:20.620Z,21.30
2023-03-24T15:00:17.098Z,21.22
2023-03-24T15:02:48.272Z,21.03
2023-03-24T15:05:31.604Z,20.76
2023-03-24T15:08:24.897Z,20.45
2023-03-24T15:11:02.373Z,20.02
2023-03-24T15:13:34.322Z,19.72
2023-03-24T15:16:06.948Z,19.58
2023-03-24T15:18:35.662Z,19.49
2023-03-24T15:21:15.800Z,19.44
2023-03-24T15:23:47.366Z,19.40
2023-03-24T15:26:15.677Z,19.50
2023-03-24T15:28:43.145Z,19.41
2023-03-24T15:31:14.023Z,19.25
2023-03-24T15:33:43.225Z,19.25
2023-03-24T15:36:21.558Z,19.21
2023-03-24T15:38:52.281Z,19.08
2023-03-24T15:41:22.590Z,19.03
2023-03-24T15:43:52.962Z,18.98
2023-03-24T15:46:29.578Z,18.99
2023-03-24T15:48:59.129Z,18.93
2023-03-24T15:51:57.647Z,18.88
2023-03-24T15:54:45.378Z,18.67
2023-03-24T15:57:19.397Z,18.52
2023-03-24T15:59:58.805Z,18.39
2023-03-24T16:02:28.964Z,18.23
2023-03-24T16:05:10.959Z,18.01
2023-03-24T16:07:41.140Z,18.03
2023-03-24T16:10:32.490Z,17.81
2023-03-24T16:13:24.732Z,17.65
2023-03-24T16:16:03.358Z,17.66
2023-03-24T16:18:36.436Z,17.56
2023-03-24T16:21:12.749Z,17.49
2023-03-24T16:23:40.058Z,17.53
2023-03-24T16:26:12.698Z,17.49
2023-03-24T16:28:39.681Z,17.37
2023-03-24T16:31:07.792Z,17.21
2023-03-24T16:33:37.451Z,17.27
2023-03-24T16:36:05.430Z,17.21
2023-03-24T16:38:33.234Z,17.24
2023-03-24T16:41:01.180Z,17.16
2023-03-24T16:43:29.811Z,17.07
2023-03-24T16:45:57.632Z,17.02
2023-03-24T16:48:25.471Z,16.81
2023-03-24T16:50:55.137Z,16.81
2023-03-24T16:53:22.182Z,16.73
2023-03-24T16:55:49.794Z,16.73
2023-03-24T16:58:17.538Z,16.74
2023-03-24T17:00:46.033Z,16.72
2023-03-24T17:03:14.169Z,16.68
2023-03-24T17:05:48.694Z,16.71
2023-03-24T17:08:19.094Z,16.72
2023-03-24T17:10:48.946Z,16.75
2023-03-24T17:13:22.531Z,16.73
2023-03-24T17:15:51.353Z,16.64
2023-03-24T17:18:19.248Z,16.65
2023-03-24T17:20:49.515Z,16.59
2023-03-24T17:23:18.751Z,16.53
2023-03-24T17:25:46.475Z,16.58
2023-03-24T17:28:27.969Z,16.47
2023-03-24T17:30:57.160Z,16.47
2023-03-24T17:33:24.322Z,16.54
2023-03-24T17:35:52.951Z,16.49
2023-03-24T17:38:20.183Z,16.36
2023-03-24T17:40:48.361Z,16.19
2023-03-24T17:43:15.894Z,16.08
2023-03-24T17:45:43.882Z,15.95
2023-03-24T17:48:11.060Z,15.81
2023-03-24T17:50:38.948Z,15.55
2023-03-24T17:53:07.603Z,15.39
2023-03-24T17:55:36.254Z,15.15
2023-03-24T17:58:03.827Z,15.03
2023-03-24T18:00:31.915Z,14.91
2023-03-24T18:03:00.036Z,14.94
2023-03-24T18:05:27.904Z,14.86
2023-03-24T18:07:55.242Z,14.90
2023-03-24T18:10:22.931Z,14.78
2023-03-24T18:12:53.676Z,14.70
2023-03-24T18:15:26.221Z,14.60
2023-03-24T18:17:53.756Z,14.46
2023-03-24T18:20:23.662Z,14.38
2023-03-24T18:22:51.093Z,14.30
2023-03-24T18:25:19.766Z,14.26
2023-03-24T18:27:47.063Z,14.29
2023-03-24T18:30:17.046Z,14.24
2023-03-24T18:32:44.399Z,14.31
2023-03-24T18:35:16.444Z,14.30
2023-03-24T18:37:44.589Z,14.32
2023-03-24T18:40:18.388Z,14.25
2023-03-24T18:42:46.652Z,14.24
2023-03-24T18:45:17.959Z,14.17
2023-03-24T18:47:46.832Z,13.96
2023-03-24T18:50:16.010Z,13.82
2023-03-24T18:52:43.371Z,13.79
2023-03-24T18:55:11.403Z,13.88
2023-03-24T18:57:38.926Z,13.94
2023-03-24T19:00:10.283Z,14.03
2023-03-24T19:02:37.738Z,13.97
2023-03-24T19:05:06.920Z,13.97
2023-03-24T19:07:36.758Z,13.93
2023-03-24T19:10:06.070Z,13.96
2023-03-24T19:12:33.651Z,13.97
2023-03-24T19:15:01.846Z,13.93
2023-03-24T19:17:29.277Z,13.97
2023-03-24T19:19:58.471Z,13.95
2023-03-24T19:22:27.612Z,13.94
2023-03-24T19:24:56.188Z,13.97
2023-03-24T19:27:27.554Z,13.94
2023-03-24T19:29:54.934Z,14.08
2023-03-24T19:32:22.706Z,13.94
2023-03-24T19:34:57.301Z,13.90
2023-03-24T19:37:25.574Z,13.87
2023-03-24T19:40:00.718Z,13.93
2023-03-24T19:42:32.144Z,13.93
2023-03-24T19:45:01.802Z,13.96
2023-03-24T19:47:28.805Z,13.87
2023-03-24T19:49:57.625Z,13.87
2023-03-24T19:52:25.040Z,13.92
2023-03-24T19:54:52.720Z,13.90
2023-03-24T19:57:20.096Z,13.80
2023-03-24T19:59:48.370Z,13.79
2023-03-24T20:02:17.054Z,13.88
2023-03-24T20:04:45.906Z,13.87
2023-03-24T20:07:14.313Z,13.92
2023-03-24T20:09:43.171Z,13.97
2023-03-24T20:12:10.589Z,13.87
2023-03-24T20:14:38.847Z,13.92
2023-03-24T20:17:06.724Z,13.74
2023-03-24T20:19:34.329Z,13.69
2023-03-24T20:22:01.699Z,13.68
2023-03-24T20:24:29.501Z,13.61
2023-03-24T20:26:56.999Z,13.72
2023-03-24T20:29:24.776Z,13.59
2023-03-24T20:31:52.604Z,13.53
2023-03-24T20:34:20.394Z,13.43
2023-03-24T20:36:49.357Z,13.41
2023-03-24T20:39:16.825Z,13.36
2023-03-24T20:41:44.405Z,13.31
2023-03-24T20:44:12.523Z,13.22
2023-03-24T20:46:40.241Z,13.14
2023-03-24T20:49:09.058Z,13.21
2023-03-24T20:51:37.053Z,13.22
2023-03-24T20:54:06.165Z,13.22
2023-03-24T20:56:34.889Z,13.29
2023-03-24T20:59:07.958Z,13.28
2023-03-24T21:01:36.475Z,13.23
2023-03-24T21:04:09.046Z,13.07
2023-03-24T21:06:41.017Z,12.89
2023-03-24T21:09:08.561Z,12.65
2023-03-24T21:11:35.864Z,12.44
2023-03-24T21:14:04.278Z,12.27
2023-03-24T21:16:34.131Z,12.05
2023-03-24T21:19:03.888Z,12.01
2023-03-24T21:21:32.449Z,11.98
2023-03-24T21:24:00.747Z,11.92
2023-03-24T21:26:28.201Z,11.80
2023-03-24T21:28:55.803Z,11.75
2023-03-24T21:31:25.830Z,11.66
2023-03-24T21:33:54.466Z,11.65
2023-03-24T21:36:22.503Z,11.67
2023-03-24T21:38:51.896Z,11.63
2023-03-24T21:41:20.660Z,11.59
2023-03-24T21:43:51.518Z,11.83
2023-03-24T21:46:21.751Z,12.01
2023-03-24T21:48:55.682Z,12.08
2023-03-24T21:51:25.825Z,12.20
2023-03-24T21:53:59.446Z,12.37
2023-03-24T21:56:26.693Z,12.37
2023-03-24T21:58:55.043Z,12.34
2023-03-24T22:01:22.645Z,12.42
2023-03-24T22:03:51.173Z,12.48
2023-03-24T22:06:18.286Z,12.53
2023-03-24T22:08:48.936Z,12.43
2023-03-24T22:11:19.272Z,12.32
2023-03-24T22:13:47.026Z,12.37
2023-03-24T22:16:14.569Z,12.37
2023-03-24T22:18:42.502Z,12.55
2023-03-24T22:21:10.710Z,12.58
2023-03-24T22:23:39.955Z,12.62
2023-03-24T22:26:11.297Z,12.65
2023-03-24T22:28:39.177Z,12.59
2023-03-24T22:31:09.741Z,12.48
2023-03-24T22:33:38.158Z,12.37
2023-03-24T22:36:06.514Z,12.29
2023-03-24T22:38:34.749Z,12.36
2023-03-24T22:41:05.423Z,12.31
2023-03-24T22:43:33.394Z,12.32
2023-03-24T22:46:00.658Z,12.29
2023-03-24T22:48:28.273Z,12.32
2023-03-24T22:50:55.704Z,12.29
2023-03-24T22:53:23.380Z,12.25
2023-03-24T22:55:51.043Z,12.18
2023-03-24T22:58:18.658Z,12.13
2023-03-24T23:00:49.287Z,12.09
2023-03-24T23:03:16.925Z,12.06
2023-03-24T23:05:46.026Z,12.05
2023-03-24T23:08:15.511Z,12.19
2023-03-24T23:10:44.216Z,12.18
2023-03-24T23:13:12.133Z,12.16
2023-03-24T23:15:40.333Z,12.33
2023-03-24T23:18:08.101Z,12.47
2023-03-24T23:20:36.559Z,12.57
2023-03-24T23:23:06.336Z,12.66
2023-03-24T23:25:39.111Z,12.65
2023-03-24T23:28:07.146Z,12.69
2023-03-24T23:30:34.222Z,12.84
2023-03-24T23:33:03.712Z,12.83
2023-03-24T23:35:32.258Z,12.88
2023-03-24T23:37:59.924Z,12.90
2023-03-24T23:40:26.968Z,13.01
2023-03-24T23:42:55.197Z,13.10
2023-03-24T23:45:22.262Z,13.09
2023-03-24T23:47:50.767Z,13.06
2023-03-24T23:50:21.446Z,13.09
2023-03-24T23:52:48.966Z,13.20
2023-03-24T23:55:18.081Z,13.24
2023-03-24T23:57:49.293Z,13.23
